sensor_id;sensor_type;location;lat;lon;timestamp;temperature;humidity
15705;DHT22;7952;48.396;12.806;2023-06-10T00:01:48;18.60;48.20
15705;DHT22;7952;48.396;12.806;2023-06-10T00:04:16;18.50;48.20
15705;DHT22;7952;48.396;12.806;2023-06-10T00:06:45;18.50;48.30
15705;DHT22;7952;48.396;12.806;2023-06-10T00:09:14;18.40;48.30
15705;DHT22;7952;48.396;12.806;2023-06-10T00:11:40;18.40;48.30
15705;DHT22;7952;48.396;12.806;2023-06-10T00:14:06;18.40;48.40
15705;DHT22;7952;48.396;12.806;2023-06-10T00:16:33;18.40;48.40
15705;DHT22;7952;48.396;12.806;2023-06-10T00:19:03;18.40;48.40
15705;DHT22;7952;48.396;12.806;2023-06-10T00:21:31;18.40;48.50
15705;DHT22;7952;48.396;12.806;2023-06-10T00:24:04;18.40;48.50
15705;DHT22;7952;48.396;12.806;2023-06-10T00:26:30;18.40;48.50
15705;DHT22;7952;48.396;12.806;2023-06-10T00:28:56;18.40;48.50
15705;DHT22;7952;48.396;12.806;2023-06-10T00:31:22;18.40;48.50
15705;DHT22;7952;48.396;12.806;2023-06-10T00:33:47;18.30;48.40
15705;DHT22;7952;48.396;12.806;2023-06-10T00:36:13;18.30;48.40
15705;DHT22;7952;48.396;12.806;2023-06-10T00:38:39;18.30;48.50
15705;DHT22;7952;48.396;12.806;2023-06-10T00:41:06;18.30;48.50
15705;DHT22;7952;48.396;12.806;2023-06-10T00:43:33;18.30;48.50
15705;DHT22;7952;48.396;12.806;2023-06-10T00:46:02;18.20;48.50
15705;DHT22;7952;48.396;12.806;2023-06-10T00:48:28;18.20;48.60
15705;DHT22;7952;48.396;12.806;2023-06-10T00:50:54;18.10;48.50
15705;DHT22;7952;48.396;12.806;2023-06-10T00:53:22;18.10;48.70
15705;DHT22;7952;48.396;12.806;2023-06-10T00:55:48;18.10;48.70
15705;DHT22;7952;48.396;12.806;2023-06-10T00:58:15;18.00;48.70
15705;DHT22;7952;48.396;12.806;2023-06-10T01:00:41;18.00;48.70
15705;DHT22;7952;48.396;12.806;2023-06-10T01:03:07;18.00;48.80
15705;DHT22;7952;48.396;12.806;2023-06-10T01:05:36;17.90;48.80
15705;DHT22;7952;48.396;12.806;2023-06-10T01:10:59;17.90;48.80
15705;DHT22;7952;48.396;12.806;2023-06-10T01:13:26;17.90;48.80
15705;DHT22;7952;48.396;12.806;2023-06-10T01:15:55;17.80;48.80
15705;DHT22;7952;48.396;12.806;2023-06-10T01:18:21;17.80;48.80
15705;DHT22;7952;48.396;12.806;2023-06-10T01:20:47;17.80;48.80
15705;DHT22;7952;48.396;12.806;2023-06-10T01:23:15;17.80;48.90
15705;DHT22;7952;48.396;12.806;2023-06-10T01:25:53;17.80;49.00
15705;DHT22;7952;48.396;12.806;2023-06-10T01:28:48;17.80;49.00
15705;DHT22;7952;48.396;12.806;2023-06-10T01:31:38;17.70;48.90
15705;DHT22;7952;48.396;12.806;2023-06-10T01:34:08;17.70;48.90
15705;DHT22;7952;48.396;12.806;2023-06-10T01:36:36;17.70;49.00
15705;DHT22;7952;48.396;12.806;2023-06-10T01:39:04;17.70;49.00
15705;DHT22;7952;48.396;12.806;2023-06-10T01:41:31;17.70;49.00
15705;DHT22;7952;48.396;12.806;2023-06-10T01:43:57;17.70;49.00
15705;DHT22;7952;48.396;12.806;2023-06-10T01:46:23;17.70;49.00
15705;DHT22;7952;48.396;12.806;2023-06-10T01:48:49;17.70;49.10
15705;DHT22;7952;48.396;12.806;2023-06-10T01:51:15;17.70;49.10
15705;DHT22;7952;48.396;12.806;2023-06-10T01:53:41;17.70;49.10
15705;DHT22;7952;48.396;12.806;2023-06-10T01:56:06;17.60;49.10
15705;DHT22;7952;48.396;12.806;2023-06-10T01:58:32;17.60;49.10
15705;DHT22;7952;48.396;12.806;2023-06-10T02:00:58;17.60;49.10
15705;DHT22;7952;48.396;12.806;2023-06-10T02:03:24;17.50;49.10
15705;DHT22;7952;48.396;12.806;2023-06-10T02:05:50;17.50;49.10
15705;DHT22;7952;48.396;12.806;2023-06-10T02:08:16;17.50;49.10
15705;DHT22;7952;48.396;12.806;2023-06-10T02:10:41;17.50;49.20
15705;DHT22;7952;48.396;12.806;2023-06-10T02:13:07;17.50;49.20
15705;DHT22;7952;48.396;12.806;2023-06-10T02:15:36;17.50;49.20
15705;DHT22;7952;48.396;12.806;2023-06-10T02:18:02;17.40;49.20
15705;DHT22;7952;48.396;12.806;2023-06-10T02:20:28;17.40;49.20
15705;DHT22;7952;48.396;12.806;2023-06-10T02:22:54;17.40;49.30
15705;DHT22;7952;48.396;12.806;2023-06-10T02:25:20;17.30;49.20
15705;DHT22;7952;48.396;12.806;2023-06-10T02:27:45;17.30;49.30
15705;DHT22;7952;48.396;12.806;2023-06-10T02:30:11;17.30;49.30
15705;DHT22;7952;48.396;12.806;2023-06-10T02:32:38;17.30;49.40
15705;DHT22;7952;48.396;12.806;2023-06-10T02:35:04;17.20;49.30
15705;DHT22;7952;48.396;12.806;2023-06-10T02:37:30;17.20;49.40
15705;DHT22;7952;48.396;12.806;2023-06-10T02:39:56;17.20;49.40
15705;DHT22;7952;48.396;12.806;2023-06-10T02:42:22;17.20;49.40
15705;DHT22;7952;48.396;12.806;2023-06-10T02:44:47;17.20;49.40
15705;DHT22;7952;48.396;12.806;2023-06-10T02:47:13;17.20;49.50
15705;DHT22;7952;48.396;12.806;2023-06-10T02:49:39;17.20;49.50
15705;DHT22;7952;48.396;12.806;2023-06-10T02:52:06;17.20;49.50
15705;DHT22;7952;48.396;12.806;2023-06-10T02:54:32;17.20;49.50
15705;DHT22;7952;48.396;12.806;2023-06-10T02:56:58;17.20;49.50
15705;DHT22;7952;48.396;12.806;2023-06-10T02:59:24;17.20;49.50
15705;DHT22;7952;48.396;12.806;2023-06-10T03:01:50;17.20;49.50
15705;DHT22;7952;48.396;12.806;2023-06-10T03:04:15;17.20;49.50
15705;DHT22;7952;48.396;12.806;2023-06-10T03:06:41;17.20;49.50
15705;DHT22;7952;48.396;12.806;2023-06-10T03:09:07;17.20;49.50
15705;DHT22;7952;48.396;12.806;2023-06-10T03:11:33;17.20;49.50
15705;DHT22;7952;48.396;12.806;2023-06-10T03:13:59;17.30;50.20
15705;DHT22;7952;48.396;12.806;2023-06-10T03:16:25;17.30;49.60
15705;DHT22;7952;48.396;12.806;2023-06-10T03:18:51;17.30;49.60
15705;DHT22;7952;48.396;12.806;2023-06-10T03:21:17;17.30;49.50
15705;DHT22;7952;48.396;12.806;2023-06-10T03:23:43;17.40;49.60
15705;DHT22;7952;48.396;12.806;2023-06-10T03:26:09;17.40;49.50
15705;DHT22;7952;48.396;12.806;2023-06-10T03:28:35;17.50;49.60
15705;DHT22;7952;48.396;12.806;2023-06-10T03:31:02;17.50;49.50
15705;DHT22;7952;48.396;12.806;2023-06-10T03:33:27;17.50;49.50
15705;DHT22;7952;48.396;12.806;2023-06-10T03:35:53;17.60;49.60
15705;DHT22;7952;48.396;12.806;2023-06-10T03:38:19;17.70;49.70
15705;DHT22;7952;48.396;12.806;2023-06-10T03:40:46;17.80;49.70
15705;DHT22;7952;48.396;12.806;2023-06-10T03:43:11;18.00;49.80
15705;DHT22;7952;48.396;12.806;2023-06-10T03:45:37;18.20;49.80
15705;DHT22;7952;48.396;12.806;2023-06-10T03:48:03;18.50;49.70
15705;DHT22;7952;48.396;12.806;2023-06-10T03:50:29;18.70;49.60
15705;DHT22;7952;48.396;12.806;2023-06-10T03:52:55;19.00;49.40
15705;DHT22;7952;48.396;12.806;2023-06-10T03:55:21;19.10;49.10
15705;DHT22;7952;48.396;12.806;2023-06-10T03:57:49;19.10;48.90
15705;DHT22;7952;48.396;12.806;2023-06-10T04:00:15;19.10;48.90
15705;DHT22;7952;48.396;12.806;2023-06-10T04:02:43;19.10;49.00
15705;DHT22;7952;48.396;12.806;2023-06-10T04:05:17;19.20;49.10
15705;DHT22;7952;48.396;12.806;2023-06-10T04:07:44;19.30;49.30
15705;DHT22;7952;48.396;12.806;2023-06-10T04:10:11;19.40;49.20
15705;DHT22;7952;48.396;12.806;2023-06-10T04:12:37;19.50;49.20
15705;DHT22;7952;48.396;12.806;2023-06-10T04:15:04;19.60;49.20
15705;DHT22;7952;48.396;12.806;2023-06-10T04:17:30;19.70;49.10
15705;DHT22;7952;48.396;12.806;2023-06-10T04:19:56;19.80;49.10
15705;DHT22;7952;48.396;12.806;2023-06-10T04:22:22;19.90;49.00
15705;DHT22;7952;48.396;12.806;2023-06-10T04:24:48;19.90;48.90
15705;DHT22;7952;48.396;12.806;2023-06-10T04:27:14;19.80;48.90
15705;DHT22;7952;48.396;12.806;2023-06-10T04:29:40;19.70;48.90
15705;DHT22;7952;48.396;12.806;2023-06-10T04:32:06;19.70;49.10
15705;DHT22;7952;48.396;12.806;2023-06-10T04:34:36;19.50;49.10
15705;DHT22;7952;48.396;12.806;2023-06-10T04:37:01;19.40;49.20
15705;DHT22;7952;48.396;12.806;2023-06-10T04:39:28;19.30;49.30
15705;DHT22;7952;48.396;12.806;2023-06-10T04:41:53;19.30;49.40
15705;DHT22;7952;48.396;12.806;2023-06-10T04:44:19;19.20;49.50
15705;DHT22;7952;48.396;12.806;2023-06-10T04:46:45;19.10;49.60
15705;DHT22;7952;48.396;12.806;2023-06-10T04:49:11;19.00;49.60
15705;DHT22;7952;48.396;12.806;2023-06-10T04:51:39;19.00;49.70
15705;DHT22;7952;48.396;12.806;2023-06-10T04:54:05;18.90;49.70
15705;DHT22;7952;48.396;12.806;2023-06-10T04:56:31;18.90;49.90
15705;DHT22;7952;48.396;12.806;2023-06-10T04:58:57;18.80;49.80
15705;DHT22;7952;48.396;12.806;2023-06-10T05:01:23;18.80;49.90
15705;DHT22;7952;48.396;12.806;2023-06-10T05:03:49;18.80;49.90
15705;DHT22;7952;48.396;12.806;2023-06-10T05:06:18;18.80;49.90
15705;DHT22;7952;48.396;12.806;2023-06-10T05:08:43;18.80;49.90
15705;DHT22;7952;48.396;12.806;2023-06-10T05:11:09;18.80;49.90
15705;DHT22;7952;48.396;12.806;2023-06-10T05:13:35;18.80;49.90
15705;DHT22;7952;48.396;12.806;2023-06-10T05:16:01;18.80;49.90
15705;DHT22;7952;48.396;12.806;2023-06-10T05:18:26;18.90;50.10
15705;DHT22;7952;48.396;12.806;2023-06-10T05:20:52;18.90;50.00
15705;DHT22;7952;48.396;12.806;2023-06-10T05:23:19;19.00;50.10
15705;DHT22;7952;48.396;12.806;2023-06-10T05:25:45;19.00;50.10
15705;DHT22;7952;48.396;12.806;2023-06-10T05:28:11;19.20;50.20
15705;DHT22;7952;48.396;12.806;2023-06-10T05:30:37;19.20;50.10
15705;DHT22;7952;48.396;12.806;2023-06-10T05:33:04;19.30;50.10
15705;DHT22;7952;48.396;12.806;2023-06-10T05:35:30;19.60;50.80
15705;DHT22;7952;48.396;12.806;2023-06-10T05:37:55;19.80;50.20
15705;DHT22;7952;48.396;12.806;2023-06-10T05:40:21;20.20;50.10
15705;DHT22;7952;48.396;12.806;2023-06-10T05:42:47;20.60;50.00
15705;DHT22;7952;48.396;12.806;2023-06-10T05:45:13;21.00;49.90
15705;DHT22;7952;48.396;12.806;2023-06-10T05:47:38;21.50;49.80
15705;DHT22;7952;48.396;12.806;2023-06-10T05:50:05;22.00;49.70
15705;DHT22;7952;48.396;12.806;2023-06-10T05:52:35;22.50;49.40
15705;DHT22;7952;48.396;12.806;2023-06-10T05:55:02;22.90;49.10
15705;DHT22;7952;48.396;12.806;2023-06-10T05:57:28;23.40;49.30
15705;DHT22;7952;48.396;12.806;2023-06-10T05:59:53;24.00;49.30
15705;DHT22;7952;48.396;12.806;2023-06-10T06:02:22;24.80;49.20
15705;DHT22;7952;48.396;12.806;2023-06-10T06:04:48;25.60;48.90
15705;DHT22;7952;48.396;12.806;2023-06-10T06:07:14;26.40;48.40
15705;DHT22;7952;48.396;12.806;2023-06-10T06:09:40;27.10;47.80
15705;DHT22;7952;48.396;12.806;2023-06-10T06:12:09;27.60;47.30
15705;DHT22;7952;48.396;12.806;2023-06-10T06:14:37;27.80;46.80
15705;DHT22;7952;48.396;12.806;2023-06-10T06:17:08;27.80;46.50
15705;DHT22;7952;48.396;12.806;2023-06-10T06:19:36;27.80;46.40
15705;DHT22;7952;48.396;12.806;2023-06-10T06:22:02;27.80;46.50
15705;DHT22;7952;48.396;12.806;2023-06-10T06:24:28;27.90;46.70
15705;DHT22;7952;48.396;12.806;2023-06-10T06:26:54;28.20;46.70
15705;DHT22;7952;48.396;12.806;2023-06-10T06:29:19;28.40;46.40
15705;DHT22;7952;48.396;12.806;2023-06-10T06:31:48;28.60;46.40
15705;DHT22;7952;48.396;12.806;2023-06-10T06:34:14;28.80;46.20
15705;DHT22;7952;48.396;12.806;2023-06-10T06:36:39;29.10;45.90
15705;DHT22;7952;48.396;12.806;2023-06-10T06:39:05;29.20;45.60
15705;DHT22;7952;48.396;12.806;2023-06-10T06:41:31;29.30;45.30
15705;DHT22;7952;48.396;12.806;2023-06-10T06:44:00;29.20;45.70
15705;DHT22;7952;48.396;12.806;2023-06-10T06:46:25;29.20;45.20
15705;DHT22;7952;48.396;12.806;2023-06-10T06:48:51;29.10;45.20
15705;DHT22;7952;48.396;12.806;2023-06-10T06:51:17;29.10;45.00
15705;DHT22;7952;48.396;12.806;2023-06-10T06:53:42;28.90;45.00
15705;DHT22;7952;48.396;12.806;2023-06-10T06:56:12;28.70;45.20
15705;DHT22;7952;48.396;12.806;2023-06-10T06:58:38;28.40;45.30
15705;DHT22;7952;48.396;12.806;2023-06-10T07:01:04;28.20;45.60
15705;DHT22;7952;48.396;12.806;2023-06-10T07:03:30;28.00;45.70
15705;DHT22;7952;48.396;12.806;2023-06-10T07:05:56;27.80;45.70
15705;DHT22;7952;48.396;12.806;2023-06-10T07:08:28;27.60;45.90
15705;DHT22;7952;48.396;12.806;2023-06-10T07:10:54;27.50;46.20
15705;DHT22;7952;48.396;12.806;2023-06-10T07:13:20;27.50;46.30
15705;DHT22;7952;48.396;12.806;2023-06-10T07:15:46;27.60;46.40
15705;DHT22;7952;48.396;12.806;2023-06-10T07:18:11;27.70;46.40
15705;DHT22;7952;48.396;12.806;2023-06-10T07:20:37;27.70;46.10
15705;DHT22;7952;48.396;12.806;2023-06-10T07:23:06;27.80;46.10
15705;DHT22;7952;48.396;12.806;2023-06-10T07:25:35;27.90;46.00
15705;DHT22;7952;48.396;12.806;2023-06-10T07:28:00;28.00;45.90
15705;DHT22;7952;48.396;12.806;2023-06-10T07:30:27;28.00;45.80
15705;DHT22;7952;48.396;12.806;2023-06-10T07:32:53;28.00;46.00
15705;DHT22;7952;48.396;12.806;2023-06-10T07:35:19;28.10;45.90
15705;DHT22;7952;48.396;12.806;2023-06-10T07:37:45;28.20;45.80
15705;DHT22;7952;48.396;12.806;2023-06-10T07:40:11;28.30;45.60
15705;DHT22;7952;48.396;12.806;2023-06-10T07:42:36;28.40;45.50
15705;DHT22;7952;48.396;12.806;2023-06-10T07:45:03;28.50;45.40
15705;DHT22;7952;48.396;12.806;2023-06-10T07:47:33;28.70;45.40
15705;DHT22;7952;48.396;12.806;2023-06-10T07:50:04;28.80;45.20
15705;DHT22;7952;48.396;12.806;2023-06-10T07:52:29;28.80;45.20
15705;DHT22;7952;48.396;12.806;2023-06-10T07:54:56;28.70;45.00
15705;DHT22;7952;48.396;12.806;2023-06-10T07:57:22;28.50;45.10
15705;DHT22;7952;48.396;12.806;2023-06-10T07:59:48;28.30;45.40
15705;DHT22;7952;48.396;12.806;2023-06-10T08:02:17;28.20;45.70
15705;DHT22;7952;48.396;12.806;2023-06-10T08:04:43;28.20;45.80
15705;DHT22;7952;48.396;12.806;2023-06-10T08:07:08;28.20;45.70
15705;DHT22;7952;48.396;12.806;2023-06-10T08:09:34;28.10;45.80
15705;DHT22;7952;48.396;12.806;2023-06-10T08:12:00;28.00;46.00
15705;DHT22;7952;48.396;12.806;2023-06-10T08:14:26;28.10;46.10
15705;DHT22;7952;48.396;12.806;2023-06-10T08:16:51;28.10;46.10
15705;DHT22;7952;48.396;12.806;2023-06-10T08:19:17;28.10;45.80
15705;DHT22;7952;48.396;12.806;2023-06-10T08:21:43;28.00;45.80
15705;DHT22;7952;48.396;12.806;2023-06-10T08:24:09;27.80;45.80
15705;DHT22;7952;48.396;12.806;2023-06-10T08:26:35;27.50;46.00
15705;DHT22;7952;48.396;12.806;2023-06-10T08:29:01;27.40;46.50
15705;DHT22;7952;48.396;12.806;2023-06-10T08:31:27;27.30;46.70
15705;DHT22;7952;48.396;12.806;2023-06-10T08:33:55;27.30;46.70
15705;DHT22;7952;48.396;12.806;2023-06-10T08:36:21;27.30;46.70
15705;DHT22;7952;48.396;12.806;2023-06-10T08:38:47;27.30;46.90
15705;DHT22;7952;48.396;12.806;2023-06-10T08:41:14;27.40;47.00
15705;DHT22;7952;48.396;12.806;2023-06-10T08:43:48;27.50;46.90
15705;DHT22;7952;48.396;12.806;2023-06-10T08:46:16;27.60;46.60
15705;DHT22;7952;48.396;12.806;2023-06-10T08:48:43;27.70;46.50
15705;DHT22;7952;48.396;12.806;2023-06-10T08:51:12;27.70;46.40
15705;DHT22;7952;48.396;12.806;2023-06-10T08:53:50;27.60;46.20
15705;DHT22;7952;48.396;12.806;2023-06-10T08:56:18;27.60;46.20
15705;DHT22;7952;48.396;12.806;2023-06-10T08:58:46;27.50;46.20
15705;DHT22;7952;48.396;12.806;2023-06-10T09:01:13;27.50;46.30
15705;DHT22;7952;48.396;12.806;2023-06-10T09:03:39;27.40;46.40
15705;DHT22;7952;48.396;12.806;2023-06-10T09:06:05;27.30;46.40
15705;DHT22;7952;48.396;12.806;2023-06-10T09:08:33;27.30;46.70
15705;DHT22;7952;48.396;12.806;2023-06-10T09:11:00;27.20;46.40
15705;DHT22;7952;48.396;12.806;2023-06-10T09:13:26;27.10;46.50
15705;DHT22;7952;48.396;12.806;2023-06-10T09:15:52;27.00;46.70
15705;DHT22;7952;48.396;12.806;2023-06-10T09:18:17;26.90;46.70
15705;DHT22;7952;48.396;12.806;2023-06-10T09:20:43;26.70;46.60
15705;DHT22;7952;48.396;12.806;2023-06-10T09:23:09;26.60;46.80
15705;DHT22;7952;48.396;12.806;2023-06-10T09:25:39;26.40;46.90
15705;DHT22;7952;48.396;12.806;2023-06-10T09:28:08;26.30;47.10
15705;DHT22;7952;48.396;12.806;2023-06-10T09:30:41;26.20;47.30
15705;DHT22;7952;48.396;12.806;2023-06-10T09:33:12;26.00;47.40
15705;DHT22;7952;48.396;12.806;2023-06-10T09:35:46;25.90;47.60
15705;DHT22;7952;48.396;12.806;2023-06-10T09:38:14;25.90;47.80
15705;DHT22;7952;48.396;12.806;2023-06-10T09:40:51;25.90;48.40
15705;DHT22;7952;48.396;12.806;2023-06-10T09:43:17;25.80;47.90
15705;DHT22;7952;48.396;12.806;2023-06-10T09:45:43;25.80;48.00
15705;DHT22;7952;48.396;12.806;2023-06-10T09:48:09;25.80;47.90
15705;DHT22;7952;48.396;12.806;2023-06-10T09:50:42;25.70;47.70
15705;DHT22;7952;48.396;12.806;2023-06-10T09:53:10;25.70;47.80
15705;DHT22;7952;48.396;12.806;2023-06-10T09:55:38;25.60;47.80
15705;DHT22;7952;48.396;12.806;2023-06-10T09:58:05;25.60;47.90
15705;DHT22;7952;48.396;12.806;2023-06-10T10:00:34;25.50;48.00
15705;DHT22;7952;48.396;12.806;2023-06-10T10:03:00;25.60;48.20
15705;DHT22;7952;48.396;12.806;2023-06-10T10:05:27;25.60;48.20
15705;DHT22;7952;48.396;12.806;2023-06-10T10:07:53;25.70;48.20
15705;DHT22;7952;48.396;12.806;2023-06-10T10:10:21;25.80;48.10
15705;DHT22;7952;48.396;12.806;2023-06-10T10:12:48;26.00;47.90
15705;DHT22;7952;48.396;12.806;2023-06-10T10:15:17;26.10;47.80
15705;DHT22;7952;48.396;12.806;2023-06-10T10:17:53;26.20;47.60
15705;DHT22;7952;48.396;12.806;2023-06-10T10:20:26;26.30;47.70
15705;DHT22;7952;48.396;12.806;2023-06-10T10:22:52;26.40;47.60
15705;DHT22;7952;48.396;12.806;2023-06-10T10:25:24;26.50;47.30
15705;DHT22;7952;48.396;12.806;2023-06-10T10:28:17;26.70;47.10
15705;DHT22;7952;48.396;12.806;2023-06-10T10:30:49;26.80;47.00
15705;DHT22;7952;48.396;12.806;2023-06-10T10:35:58;26.90;46.80
15705;DHT22;7952;48.396;12.806;2023-06-10T10:38:24;26.90;46.60
15705;DHT22;7952;48.396;12.806;2023-06-10T10:40:50;26.90;46.50
15705;DHT22;7952;48.396;12.806;2023-06-10T10:43:17;27.00;46.50
15705;DHT22;7952;48.396;12.806;2023-06-10T10:45:57;27.00;46.50
15705;DHT22;7952;48.396;12.806;2023-06-10T10:48:27;27.10;46.40
15705;DHT22;7952;48.396;12.806;2023-06-10T10:50:58;27.20;46.10
15705;DHT22;7952;48.396;12.806;2023-06-10T10:53:24;27.20;45.90
15705;DHT22;7952;48.396;12.806;2023-06-10T10:56:07;27.20;46.00
15705;DHT22;7952;48.396;12.806;2023-06-10T10:58:33;27.20;46.00
15705;DHT22;7952;48.396;12.806;2023-06-10T11:00:59;27.20;46.10
15705;DHT22;7952;48.396;12.806;2023-06-10T11:03:42;27.30;46.10
15705;DHT22;7952;48.396;12.806;2023-06-10T11:06:13;27.40;45.90
15705;DHT22;7952;48.396;12.806;2023-06-10T11:14:07;27.60;45.70
15705;DHT22;7952;48.396;12.806;2023-06-10T11:16:41;27.70;45.50
15705;DHT22;7952;48.396;12.806;2023-06-10T11:19:07;27.70;45.40
15705;DHT22;7952;48.396;12.806;2023-06-10T11:22:03;27.70;45.40
15705;DHT22;7952;48.396;12.806;2023-06-10T11:24:29;27.60;45.30
15705;DHT22;7952;48.396;12.806;2023-06-10T11:27:15;27.60;45.40
15705;DHT22;7952;48.396;12.806;2023-06-10T11:30:17;27.50;45.50
15705;DHT22;7952;48.396;12.806;2023-06-10T11:32:43;27.40;45.50
15705;DHT22;7952;48.396;12.806;2023-06-10T11:35:19;27.40;45.60
15705;DHT22;7952;48.396;12.806;2023-06-10T11:37:47;27.30;45.60
15705;DHT22;7952;48.396;12.806;2023-06-10T11:40:13;27.30;45.60
15705;DHT22;7952;48.396;12.806;2023-06-10T11:42:40;27.30;45.70
15705;DHT22;7952;48.396;12.806;2023-06-10T11:45:07;27.40;45.80
15705;DHT22;7952;48.396;12.806;2023-06-10T11:47:34;27.40;45.50
15705;DHT22;7952;48.396;12.806;2023-06-10T11:49:59;27.50;45.70
15705;DHT22;7952;48.396;12.806;2023-06-10T11:52:32;27.60;45.60
15705;DHT22;7952;48.396;12.806;2023-06-10T11:54:59;27.60;45.30
15705;DHT22;7952;48.396;12.806;2023-06-10T11:57:25;27.60;45.30
15705;DHT22;7952;48.396;12.806;2023-06-10T11:59:51;27.50;45.30
15705;DHT22;7952;48.396;12.806;2023-06-10T12:02:17;27.50;45.40
15705;DHT22;7952;48.396;12.806;2023-06-10T12:04:44;27.40;45.50
15705;DHT22;7952;48.396;12.806;2023-06-10T12:07:17;27.30;45.50
15705;DHT22;7952;48.396;12.806;2023-06-10T12:09:44;27.30;45.60
15705;DHT22;7952;48.396;12.806;2023-06-10T12:12:10;27.20;45.70
15705;DHT22;7952;48.396;12.806;2023-06-10T12:14:55;27.10;45.80
15705;DHT22;7952;48.396;12.806;2023-06-10T12:19:56;27.00;46.10
15705;DHT22;7952;48.396;12.806;2023-06-10T12:22:22;27.00;46.10
15705;DHT22;7952;48.396;12.806;2023-06-10T12:25:03;27.00;46.20
15705;DHT22;7952;48.396;12.806;2023-06-10T12:27:30;27.10;46.30
15705;DHT22;7952;48.396;12.806;2023-06-10T12:29:58;27.20;46.30
15705;DHT22;7952;48.396;12.806;2023-06-10T12:32:43;27.30;46.20
15705;DHT22;7952;48.396;12.806;2023-06-10T12:35:10;27.30;46.00
15705;DHT22;7952;48.396;12.806;2023-06-10T12:37:38;27.40;45.90
15705;DHT22;7952;48.396;12.806;2023-06-10T12:40:05;27.30;45.80
15705;DHT22;7952;48.396;12.806;2023-06-10T12:42:36;27.30;45.80
15705;DHT22;7952;48.396;12.806;2023-06-10T12:45:03;27.10;45.70
15705;DHT22;7952;48.396;12.806;2023-06-10T12:47:31;26.90;45.80
15705;DHT22;7952;48.396;12.806;2023-06-10T12:49:58;26.80;46.00
15705;DHT22;7952;48.396;12.806;2023-06-10T12:52:25;26.60;46.10
15705;DHT22;7952;48.396;12.806;2023-06-10T12:54:51;26.50;46.30
15705;DHT22;7952;48.396;12.806;2023-06-10T12:57:17;26.40;46.40
15705;DHT22;7952;48.396;12.806;2023-06-10T12:59:43;26.40;46.50
15705;DHT22;7952;48.396;12.806;2023-06-10T13:02:16;26.30;46.60
15705;DHT22;7952;48.396;12.806;2023-06-10T13:04:44;26.20;46.70
15705;DHT22;7952;48.396;12.806;2023-06-10T13:07:10;26.20;46.80
15705;DHT22;7952;48.396;12.806;2023-06-10T13:09:36;26.20;46.90
15705;DHT22;7952;48.396;12.806;2023-06-10T13:12:04;26.20;46.90
15705;DHT22;7952;48.396;12.806;2023-06-10T13:14:30;26.20;46.90
15705;DHT22;7952;48.396;12.806;2023-06-10T13:16:56;26.20;47.00
15705;DHT22;7952;48.396;12.806;2023-06-10T13:19:22;26.20;47.00
15705;DHT22;7952;48.396;12.806;2023-06-10T13:21:52;26.10;47.00
15705;DHT22;7952;48.396;12.806;2023-06-10T13:24:17;26.10;47.10
15705;DHT22;7952;48.396;12.806;2023-06-10T13:26:43;26.00;47.20
15705;DHT22;7952;48.396;12.806;2023-06-10T13:29:09;25.90;47.30
15705;DHT22;7952;48.396;12.806;2023-06-10T13:31:40;25.90;47.50
15705;DHT22;7952;48.396;12.806;2023-06-10T13:34:06;25.80;47.50
15705;DHT22;7952;48.396;12.806;2023-06-10T13:36:32;25.80;47.60
15705;DHT22;7952;48.396;12.806;2023-06-10T13:38:57;25.80;47.80
15705;DHT22;7952;48.396;12.806;2023-06-10T13:41:23;25.90;47.80
15705;DHT22;7952;48.396;12.806;2023-06-10T13:43:50;26.00;47.80
15705;DHT22;7952;48.396;12.806;2023-06-10T13:46:16;26.10;47.70
15705;DHT22;7952;48.396;12.806;2023-06-10T13:48:41;26.20;47.60
15705;DHT22;7952;48.396;12.806;2023-06-10T13:51:07;26.30;47.50
15705;DHT22;7952;48.396;12.806;2023-06-10T13:53:34;26.50;47.60
15705;DHT22;7952;48.396;12.806;2023-06-10T13:56:01;26.70;47.50
15705;DHT22;7952;48.396;12.806;2023-06-10T13:58:27;26.80;47.30
15705;DHT22;7952;48.396;12.806;2023-06-10T14:00:53;27.00;47.10
15705;DHT22;7952;48.396;12.806;2023-06-10T14:03:18;27.00;46.90
15705;DHT22;7952;48.396;12.806;2023-06-10T14:05:44;26.90;46.90
15705;DHT22;7952;48.396;12.806;2023-06-10T14:08:10;26.90;46.90
15705;DHT22;7952;48.396;12.806;2023-06-10T14:10:36;26.90;47.00
15705;DHT22;7952;48.396;12.806;2023-06-10T14:13:01;27.00;47.20
15705;DHT22;7952;48.396;12.806;2023-06-10T14:15:27;27.10;47.10
15705;DHT22;7952;48.396;12.806;2023-06-10T14:17:53;27.20;47.10
15705;DHT22;7952;48.396;12.806;2023-06-10T14:20:19;27.30;47.00
15705;DHT22;7952;48.396;12.806;2023-06-10T14:22:44;27.40;46.90
15705;DHT22;7952;48.396;12.806;2023-06-10T14:25:10;27.50;46.70
15705;DHT22;7952;48.396;12.806;2023-06-10T14:27:37;27.60;46.70
15705;DHT22;7952;48.396;12.806;2023-06-10T14:30:03;27.60;46.70
15705;DHT22;7952;48.396;12.806;2023-06-10T14:32:31;27.60;46.50
15705;DHT22;7952;48.396;12.806;2023-06-10T14:34:56;27.60;46.40
15705;DHT22;7952;48.396;12.806;2023-06-10T14:37:25;27.60;46.40
15705;DHT22;7952;48.396;12.806;2023-06-10T14:39:51;27.50;46.30
15705;DHT22;7952;48.396;12.806;2023-06-10T14:42:16;27.50;46.40
15705;DHT22;7952;48.396;12.806;2023-06-10T14:44:42;27.50;46.60
15705;DHT22;7952;48.396;12.806;2023-06-10T14:47:08;27.50;46.50
15705;DHT22;7952;48.396;12.806;2023-06-10T14:49:34;27.50;46.40
15705;DHT22;7952;48.396;12.806;2023-06-10T14:51:59;27.50;46.30
15705;DHT22;7952;48.396;12.806;2023-06-10T14:54:25;27.50;46.30
15705;DHT22;7952;48.396;12.806;2023-06-10T14:56:51;27.40;46.20
15705;DHT22;7952;48.396;12.806;2023-06-10T14:59:17;27.40;46.20
15705;DHT22;7952;48.396;12.806;2023-06-10T15:01:42;27.30;46.20
15705;DHT22;7952;48.396;12.806;2023-06-10T15:04:08;27.30;46.30
15705;DHT22;7952;48.396;12.806;2023-06-10T15:06:34;27.30;46.40
15705;DHT22;7952;48.396;12.806;2023-06-10T15:09:00;27.30;46.50
15705;DHT22;7952;48.396;12.806;2023-06-10T15:11:25;27.40;46.50
15705;DHT22;7952;48.396;12.806;2023-06-10T15:13:51;27.40;46.40
15705;DHT22;7952;48.396;12.806;2023-06-10T15:16:17;27.40;46.40
15705;DHT22;7952;48.396;12.806;2023-06-10T15:18:43;27.30;46.40
15705;DHT22;7952;48.396;12.806;2023-06-10T15:21:08;27.30;46.50
15705;DHT22;7952;48.396;12.806;2023-06-10T15:23:34;27.20;46.40
15705;DHT22;7952;48.396;12.806;2023-06-10T15:26:00;27.10;46.30
15705;DHT22;7952;48.396;12.806;2023-06-10T15:28:26;26.90;46.30
15705;DHT22;7952;48.396;12.806;2023-06-10T15:30:51;26.60;46.50
15705;DHT22;7952;48.396;12.806;2023-06-10T15:33:17;26.30;46.70
15705;DHT22;7952;48.396;12.806;2023-06-10T15:35:46;26.00;47.00
15705;DHT22;7952;48.396;12.806;2023-06-10T15:38:12;25.70;47.30
15705;DHT22;7952;48.396;12.806;2023-06-10T15:40:38;25.40;47.60
15705;DHT22;7952;48.396;12.806;2023-06-10T15:43:07;25.10;47.90
15705;DHT22;7952;48.396;12.806;2023-06-10T15:45:32;24.80;48.30